createdAt,value
2019-04-06T00:02:21.274Z,14.77
2019-04-06T00:04:49.937Z,15.07
2019-04-06T00:07:18.604Z,18.10
2019-04-06T00:09:47.314Z,15.60
2019-04-06T00:12:16.088Z,12.97
2019-04-06T00:14:44.649Z,12.70
2019-04-06T00:17:13.218Z,14.87
2019-04-06T00:19:41.883Z,15.67
2019-04-06T00:22:10.578Z,12.63
2019-04-06T00:24:39.145Z,16.97
2019-04-06T00:27:07.863Z,13.70
2019-04-06T00:29:36.457Z,14.87
2019-04-06T00:32:06.734Z,15.17
2019-04-06T00:34:35.603Z,11.77
2019-04-06T00:37:04.321Z,15.00
2019-04-06T00:39:32.994Z,15.67
2019-04-06T00:42:02.359Z,13.53
2019-04-06T00:44:30.914Z,18.73
2019-04-06T00:46:59.657Z,13.63
2019-04-06T00:49:28.717Z,20.30
2019-04-06T00:51:57.377Z,13.50
2019-04-06T00:54:25.961Z,18.33
2019-04-06T00:56:54.561Z,19.33
2019-04-06T00:59:23.244Z,17.70
2019-04-06T01:01:51.986Z,15.40
2019-04-06T01:04:20.694Z,13.77
2019-04-06T01:06:49.377Z,13.60
2019-04-06T01:09:19.117Z,15.30
2019-04-06T01:11:47.741Z,13.90
2019-04-06T01:14:16.368Z,16.27
2019-04-06T01:16:45.037Z,12.93
2019-04-06T01:19:13.735Z,13.13
2019-04-06T01:21:42.354Z,16.33
2019-04-06T01:24:11.030Z,15.33
2019-04-06T01:26:39.692Z,17.30
2019-04-06T01:29:08.347Z,10.70
2019-04-06T01:31:36.940Z,11.27
2019-04-06T01:34:05.570Z,16.37
2019-04-06T01:36:34.225Z,16.33
2019-04-06T01:39:02.800Z,12.97
2019-04-06T01:41:31.358Z,17.27
2019-04-06T01:43:59.929Z,13.27
2019-04-06T01:46:28.494Z,16.60
2019-04-06T01:48:57.133Z,12.30
2019-04-06T01:51:25.804Z,14.23
2019-04-06T01:53:54.397Z,14.10
2019-04-06T01:56:22.986Z,12.27
2019-04-06T01:58:51.620Z,10.60
2019-04-06T02:01:24.875Z,16.47
2019-04-06T02:03:53.690Z,12.53
2019-04-06T02:06:22.430Z,14.77
2019-04-06T02:08:51.052Z,12.60
2019-04-06T02:11:19.663Z,10.20
2019-04-06T02:13:48.366Z,12.10
2019-04-06T02:16:16.954Z,15.10
2019-04-06T02:18:45.542Z,10.70
2019-04-06T02:21:14.177Z,11.90
2019-04-06T02:23:42.750Z,11.50
2019-04-06T02:26:11.321Z,12.43
2019-04-06T02:28:39.927Z,14.03
2019-04-06T02:31:10.188Z,17.70
2019-04-06T02:33:52.741Z,12.80
2019-04-06T02:36:26.087Z,15.25
2019-04-06T02:38:59.145Z,13.43
2019-04-06T02:41:47.589Z,11.73
2019-04-06T02:44:16.257Z,12.30
2019-04-06T02:46:44.801Z,12.03
2019-04-06T02:49:13.764Z,14.83
2019-04-06T02:51:42.289Z,11.07
2019-04-06T02:54:10.927Z,12.03
2019-04-06T02:56:46.630Z,10.23
2019-04-06T02:59:10.107Z,11.53
2019-04-06T03:01:39.286Z,15.47
2019-04-06T03:04:08.030Z,12.47
2019-04-06T03:06:36.816Z,11.73
2019-04-06T03:09:06.424Z,13.93
2019-04-06T03:11:35.251Z,10.93
2019-04-06T03:14:04.785Z,15.03
2019-04-06T03:16:33.522Z,12.47
2019-04-06T03:19:02.370Z,11.53
2019-04-06T03:21:31.011Z,11.13
2019-04-06T03:23:59.705Z,9.57
2019-04-06T03:26:28.484Z,10.73
2019-04-06T03:28:58.533Z,14.73
2019-04-06T03:31:28.132Z,10.20
2019-04-06T03:33:57.631Z,12.13
2019-04-06T03:36:26.690Z,9.97
2019-04-06T03:38:55.364Z,11.17
2019-04-06T03:41:24.044Z,11.40
2019-04-06T03:43:52.647Z,10.83
2019-04-06T03:46:21.250Z,11.07
2019-04-06T03:48:49.894Z,9.97
2019-04-06T03:51:18.815Z,14.57
2019-04-06T03:53:47.457Z,13.93
2019-04-06T03:56:16.099Z,18.97
2019-04-06T03:58:44.734Z,12.20
2019-04-06T04:01:13.478Z,15.63
2019-04-06T04:03:42.266Z,9.60
2019-04-06T04:06:11.060Z,12.53
2019-04-06T04:08:39.916Z,15.17
2019-04-06T04:11:08.483Z,10.57
2019-04-06T04:13:37.285Z,14.60
2019-04-06T04:16:05.866Z,40.20
2019-04-06T04:18:34.743Z,11.90
2019-04-06T04:21:03.546Z,11.57
2019-04-06T04:23:32.185Z,17.73
2019-04-06T04:26:00.755Z,13.33
2019-04-06T04:28:29.700Z,11.47
2019-04-06T04:30:58.244Z,16.27
2019-04-06T04:33:26.882Z,15.60
2019-04-06T04:35:55.738Z,10.90
2019-04-06T04:38:25.092Z,18.90
2019-04-06T04:40:53.892Z,12.37
2019-04-06T04:43:22.493Z,10.90
2019-04-06T04:45:51.150Z,13.63
2019-04-06T04:48:19.918Z,11.90
2019-04-06T04:50:48.610Z,9.57
2019-04-06T04:53:17.180Z,11.90
2019-04-06T04:55:45.745Z,14.40
2019-04-06T04:58:14.436Z,12.80
2019-04-06T05:00:42.985Z,11.40
2019-04-06T05:03:11.624Z,15.87
2019-04-06T05:05:40.235Z,12.37
2019-04-06T05:08:08.826Z,9.67
2019-04-06T05:10:37.502Z,11.80
2019-04-06T05:13:06.277Z,11.73
2019-04-06T05:16:03.688Z,11.20
2019-04-06T05:18:32.384Z,9.30
2019-04-06T05:21:01.091Z,14.53
2019-04-06T05:23:29.753Z,15.03
2019-04-06T05:25:58.803Z,12.03
2019-04-06T05:28:27.862Z,12.03
2019-04-06T05:30:56.765Z,14.17
2019-04-06T05:33:25.519Z,11.17
2019-04-06T05:35:54.986Z,9.53
2019-04-06T05:38:24.013Z,11.43
2019-04-06T05:40:52.690Z,11.50
2019-04-06T05:43:21.328Z,13.30
2019-04-06T05:45:49.973Z,12.43
2019-04-06T05:48:18.898Z,14.13
2019-04-06T05:50:47.554Z,12.87
2019-04-06T05:53:16.147Z,10.43
2019-04-06T05:55:44.951Z,10.77
2019-04-06T05:58:13.551Z,16.10
2019-04-06T06:00:42.222Z,15.40
2019-04-06T06:03:11.446Z,12.57
2019-04-06T06:05:41.180Z,11.23
2019-04-06T06:08:10.290Z,11.87
2019-04-06T06:10:39.138Z,12.30
2019-04-06T06:13:07.850Z,13.03
2019-04-06T06:15:36.546Z,14.73
2019-04-06T06:18:05.586Z,15.87
2019-04-06T06:20:34.545Z,19.10
2019-04-06T06:23:03.571Z,15.60
2019-04-06T06:25:32.640Z,13.27
2019-04-06T06:28:01.400Z,13.83
2019-04-06T06:30:30.126Z,15.67
2019-04-06T06:32:58.981Z,21.03
2019-04-06T06:35:27.762Z,19.80
2019-04-06T06:37:56.356Z,15.53
2019-04-06T06:40:24.975Z,16.73
2019-04-06T06:42:53.791Z,16.70
2019-04-06T06:45:22.556Z,12.03
2019-04-06T06:47:51.137Z,16.10
2019-04-06T06:50:20.283Z,9.87
2019-04-06T06:52:49.104Z,17.43
2019-04-06T06:55:18.730Z,12.80
2019-04-06T06:57:49.154Z,15.43
2019-04-06T07:00:18.099Z,16.07
2019-04-06T07:02:47.128Z,17.97
2019-04-06T07:05:16.083Z,19.17
2019-04-06T07:07:44.782Z,15.97
2019-04-06T07:10:15.365Z,22.23
2019-04-06T07:12:44.015Z,17.83
2019-04-06T07:15:13.666Z,14.60
2019-04-06T07:17:42.607Z,18.43
2019-04-06T07:20:11.750Z,17.33
2019-04-06T07:22:40.548Z,19.57
2019-04-06T07:25:09.467Z,14.70
2019-04-06T07:27:38.075Z,20.43
2019-04-06T07:30:08.559Z,18.63
2019-04-06T07:32:37.197Z,17.67
2019-04-06T07:35:07.598Z,15.77
2019-04-06T07:37:36.585Z,14.70
2019-04-06T07:40:10.421Z,19.43
2019-04-06T07:42:39.058Z,18.73
2019-04-06T07:45:09.429Z,24.30
2019-04-06T07:47:38.090Z,20.27
2019-04-06T07:50:08.038Z,20.30
2019-04-06T07:52:37.024Z,13.67
2019-04-06T07:55:08.019Z,18.60
2019-04-06T07:57:37.782Z,17.93
2019-04-06T08:00:10.458Z,23.23
2019-04-06T08:02:39.532Z,19.00
2019-04-06T08:05:08.577Z,17.10
2019-04-06T08:07:37.260Z,13.63
2019-04-06T08:10:06.600Z,22.22
2019-04-06T08:12:35.433Z,18.20
2019-04-06T08:15:06.438Z,27.32
2019-04-06T08:17:35.163Z,19.57
2019-04-06T08:20:06.598Z,16.57
2019-04-06T08:22:35.189Z,17.02
2019-04-06T08:25:05.702Z,15.98
2019-04-06T08:27:34.529Z,19.27
2019-04-06T08:30:04.678Z,15.77
2019-04-06T08:32:33.313Z,21.30
2019-04-06T08:35:02.034Z,17.62
2019-04-06T08:37:31.055Z,21.82
2019-04-06T08:39:59.604Z,16.40
2019-04-06T08:42:28.222Z,21.00
2019-04-06T08:44:57.201Z,16.27
2019-04-06T08:47:25.760Z,18.98
2019-04-06T08:49:54.458Z,15.45
2019-04-06T08:52:23.278Z,17.57
2019-04-06T08:54:52.107Z,21.30
2019-04-06T08:57:22.571Z,18.27
2019-04-06T08:59:51.000Z,19.57
2019-04-06T09:02:19.650Z,18.07
2019-04-06T09:04:48.699Z,20.55
2019-04-06T09:07:17.814Z,21.05
2019-04-06T09:09:46.470Z,15.78
2019-04-06T09:12:15.407Z,17.20
2019-04-06T09:14:44.189Z,14.83
2019-04-06T09:17:13.038Z,15.80
2019-04-06T09:19:41.610Z,20.65
2019-04-06T09:22:10.461Z,20.68
2019-04-06T09:24:39.297Z,19.77
2019-04-06T09:27:08.109Z,18.10
2019-04-06T09:29:36.883Z,15.83
2019-04-06T09:32:05.868Z,14.95
2019-04-06T09:34:35.228Z,15.85
2019-04-06T09:37:04.360Z,18.92
2019-04-06T09:39:33.098Z,18.62
2019-04-06T09:42:02.005Z,19.42
2019-04-06T09:44:48.840Z,17.30
2019-04-06T09:47:21.935Z,19.00
2019-04-06T09:49:56.033Z,23.18
2019-04-06T09:52:26.303Z,16.55
2019-04-06T09:54:56.542Z,21.48
2019-04-06T09:57:36.352Z,25.23
2019-04-06T10:00:09.613Z,20.97
2019-04-06T10:02:40.060Z,20.82
2019-04-06T10:05:13.679Z,16.95
2019-04-06T10:08:04.372Z,22.13
2019-04-06T10:10:51.399Z,24.77
2019-04-06T10:13:33.682Z,21.35
2019-04-06T10:16:20.349Z,34.38
2019-04-06T10:18:51.071Z,24.37
2019-04-06T10:21:21.839Z,21.40
2019-04-06T10:23:58.625Z,16.75
2019-04-06T10:26:31.683Z,18.85
2019-04-06T10:29:05.447Z,19.23
2019-04-06T10:31:52.009Z,14.68
2019-04-06T10:34:27.973Z,19.80
2019-04-06T10:37:16.646Z,20.80
2019-04-06T10:39:55.973Z,16.80
2019-04-06T10:42:28.545Z,16.60
2019-04-06T10:45:07.441Z,19.30
2019-04-06T10:47:43.756Z,17.17
2019-04-06T10:50:31.798Z,18.60
2019-04-06T10:53:07.994Z,15.50
2019-04-06T10:55:54.222Z,17.98
2019-04-06T10:58:33.467Z,16.40
2019-04-06T11:01:20.619Z,15.25
2019-04-06T11:04:07.694Z,15.05
2019-04-06T11:06:40.924Z,16.20
2019-04-06T11:09:27.411Z,17.60
2019-04-06T11:12:00.654Z,16.50
2019-04-06T11:14:42.663Z,13.78
2019-04-06T11:17:18.659Z,15.30
2019-04-06T11:19:51.840Z,16.07
2019-04-06T11:22:22.242Z,14.07
2019-04-06T11:24:52.719Z,14.50
2019-04-06T11:27:39.313Z,16.48
2019-04-06T11:30:14.020Z,16.77
2019-04-06T11:32:43.070Z,16.57
2019-04-06T11:35:16.337Z,16.62
2019-04-06T11:37:58.561Z,18.55
2019-04-06T11:43:14.816Z,15.65
2019-04-06T11:45:54.147Z,13.43
2019-04-06T11:48:30.576Z,15.35
2019-04-06T11:51:03.574Z,14.60
2019-04-06T11:53:50.007Z,16.77
2019-04-06T11:56:36.523Z,17.80
2019-04-06T11:59:07.006Z,21.30
2019-04-06T12:01:53.200Z,18.37
2019-04-06T12:04:38.158Z,17.07
2019-04-06T12:07:17.223Z,15.78
2019-04-06T12:09:47.501Z,16.77
2019-04-06T12:12:34.426Z,13.78
2019-04-06T12:15:11.035Z,18.40
2019-04-06T12:17:50.410Z,15.23
2019-04-06T12:20:39.346Z,18.00
2019-04-06T12:23:13.065Z,18.12
2019-04-06T12:25:56.022Z,19.20
2019-04-06T12:28:31.960Z,19.80
2019-04-06T12:31:07.983Z,19.02
2019-04-06T12:33:54.418Z,19.05
2019-04-06T12:36:25.086Z,20.52
2019-04-06T12:38:58.437Z,16.48
2019-04-06T12:41:34.538Z,15.55
2019-04-06T12:44:20.133Z,13.62
2019-04-06T12:47:07.302Z,15.78
2019-04-06T12:49:47.254Z,15.32
2019-04-06T12:52:17.983Z,15.28
2019-04-06T12:54:51.803Z,13.57
2019-04-06T12:57:38.559Z,15.13
2019-04-06T13:00:19.291Z,14.03
2019-04-06T13:02:49.670Z,17.45
2019-04-06T13:05:36.069Z,18.40
2019-04-06T13:08:18.555Z,15.23
2019-04-06T13:11:05.416Z,13.10
2019-04-06T13:13:42.070Z,12.95
2019-04-06T13:16:13.170Z,15.05
2019-04-06T13:18:44.000Z,13.38
2019-04-06T13:21:20.707Z,19.27
2019-04-06T13:24:06.646Z,14.10
2019-04-06T13:26:42.917Z,14.38
2019-04-06T13:29:29.945Z,17.15
2019-04-06T13:32:03.021Z,14.18
2019-04-06T13:34:33.285Z,14.50
2019-04-06T13:37:22.088Z,24.47
2019-04-06T13:39:52.861Z,15.50
2019-04-06T13:42:31.882Z,14.13
2019-04-06T13:45:05.112Z,14.15
2019-04-06T13:47:35.355Z,15.58
2019-04-06T13:50:26.378Z,14.60
2019-04-06T13:53:02.994Z,15.58
2019-04-06T13:55:41.988Z,16.73
2019-04-06T13:58:12.338Z,14.20
2019-04-06T14:00:49.010Z,19.35
2019-04-06T14:03:34.911Z,16.00
2019-04-06T14:06:14.310Z,16.52
2019-04-06T14:08:53.479Z,15.95
2019-04-06T14:11:23.788Z,16.55
2019-04-06T14:13:57.459Z,18.98
2019-04-06T14:16:30.876Z,13.72
2019-04-06T14:19:07.404Z,12.90
2019-04-06T14:21:43.574Z,16.20
2019-04-06T14:24:20.034Z,17.48
2019-04-06T14:27:06.709Z,15.30
2019-04-06T14:29:43.569Z,16.37
2019-04-06T14:32:23.473Z,17.60
2019-04-06T14:35:11.816Z,16.30
2019-04-06T14:37:50.787Z,12.35
2019-04-06T14:40:37.119Z,12.37
2019-04-06T14:43:10.098Z,14.98
2019-04-06T14:45:42.792Z,13.68
2019-04-06T14:48:28.130Z,13.50
2019-04-06T14:50:58.441Z,13.72
2019-04-06T14:53:45.074Z,17.90
2019-04-06T14:56:15.396Z,12.07
2019-04-06T14:59:03.727Z,15.72
2019-04-06T15:01:57.899Z,13.45
2019-04-06T15:04:41.185Z,14.83
2019-04-06T15:07:17.361Z,14.00
2019-04-06T15:09:47.582Z,14.23
2019-04-06T15:12:32.826Z,12.70
2019-04-06T15:15:12.640Z,18.73
2019-04-06T15:17:55.450Z,15.93
2019-04-06T15:20:26.117Z,20.17
2019-04-06T15:22:56.678Z,20.50
2019-04-06T15:25:45.578Z,17.98
2019-04-06T15:28:34.257Z,14.85
2019-04-06T15:31:04.732Z,15.88
2019-04-06T15:33:44.821Z,14.45
2019-04-06T15:36:18.346Z,15.13
2019-04-06T15:38:48.911Z,15.75
2019-04-06T15:41:31.107Z,13.13
2019-04-06T15:44:19.734Z,15.78
2019-04-06T15:46:56.461Z,17.02
2019-04-06T15:49:26.894Z,18.42
2019-04-06T15:52:15.725Z,20.97
2019-04-06T15:55:01.106Z,20.92
2019-04-06T15:57:32.063Z,15.20
2019-04-06T16:00:18.904Z,16.55
2019-04-06T16:02:58.226Z,19.42
2019-04-06T16:05:37.808Z,22.30
2019-04-06T16:08:15.123Z,17.27
2019-04-06T16:10:48.365Z,17.65
2019-04-06T16:13:34.367Z,15.25
2019-04-06T16:16:21.242Z,13.30
2019-04-06T16:19:08.136Z,18.55
2019-04-06T16:21:38.844Z,23.57
2019-04-06T16:24:09.711Z,18.62
2019-04-06T16:26:51.825Z,22.15
2019-04-06T16:29:38.789Z,22.07
2019-04-06T16:32:15.127Z,18.15
2019-04-06T16:35:01.334Z,19.25
2019-04-06T16:37:40.577Z,24.43
2019-04-06T16:40:26.173Z,17.57
2019-04-06T16:43:02.884Z,20.85
2019-04-06T16:45:45.438Z,17.92
2019-04-06T16:48:19.817Z,18.75
2019-04-06T16:50:50.015Z,17.57
2019-04-06T16:53:32.815Z,17.45
2019-04-06T16:58:55.328Z,18.00
2019-04-06T17:01:43.758Z,16.60
2019-04-06T17:04:20.392Z,19.95
2019-04-06T17:06:51.138Z,18.10
2019-04-06T17:09:22.060Z,21.00
2019-04-06T17:12:01.510Z,23.92
2019-04-06T17:14:44.065Z,19.12
2019-04-06T17:17:29.482Z,21.73
2019-04-06T17:20:05.667Z,19.20
2019-04-06T17:22:52.681Z,23.02
2019-04-06T17:25:29.887Z,20.10
2019-04-06T17:28:11.418Z,21.93
2019-04-06T17:30:46.323Z,29.42
2019-04-06T17:33:22.575Z,21.95
2019-04-06T17:36:05.230Z,24.98
2019-04-06T17:38:52.206Z,34.65
2019-04-06T17:41:22.729Z,20.32
2019-04-06T17:43:55.962Z,35.55
2019-04-06T17:46:29.002Z,27.07
2019-04-06T17:49:16.232Z,24.57
2019-04-06T17:52:01.884Z,28.00
2019-04-06T17:54:35.350Z,28.85
2019-04-06T17:57:09.553Z,25.50
2019-04-06T17:59:56.316Z,21.57
2019-04-06T18:02:47.369Z,24.75
2019-04-06T18:05:12.442Z,20.60
2019-04-06T20:44:05.438Z,16.07
2019-04-06T20:46:34.486Z,15.43
2019-04-06T20:49:03.226Z,15.03
2019-04-06T20:51:31.790Z,17.17
2019-04-06T20:54:00.869Z,12.20
2019-04-06T20:56:29.836Z,14.47
2019-04-06T20:58:58.722Z,16.27
2019-04-06T21:01:27.704Z,18.53
2019-04-06T21:04:01.112Z,19.90
2019-04-06T21:06:26.859Z,13.97
2019-04-06T21:08:56.106Z,18.40
2019-04-06T21:11:25.405Z,16.00
2019-04-06T21:13:55.170Z,18.20
2019-04-06T21:16:23.939Z,15.23
2019-04-06T21:18:52.522Z,15.77
2019-04-06T21:21:21.095Z,18.17
2019-04-06T21:23:49.836Z,23.90
2019-04-06T21:26:18.434Z,19.77
2019-04-06T21:28:48.832Z,21.43
2019-04-06T21:31:17.710Z,17.60
2019-04-06T21:33:46.750Z,17.17
2019-04-06T21:36:16.282Z,16.63
2019-04-06T21:38:45.572Z,21.23
2019-04-06T21:41:14.965Z,19.77
2019-04-06T21:43:43.780Z,15.13
2019-04-06T21:46:14.322Z,20.13
2019-04-06T21:48:42.843Z,16.27
2019-04-06T21:51:11.492Z,17.60
2019-04-06T21:53:40.244Z,18.40
2019-04-06T21:56:09.193Z,18.67
2019-04-06T21:58:38.093Z,18.57
2019-04-06T22:01:08.382Z,18.57
2019-04-06T22:03:37.020Z,22.30
2019-04-06T22:06:06.381Z,19.40
2019-04-06T22:08:35.149Z,21.53
2019-04-06T22:11:04.432Z,28.13
2019-04-06T22:13:33.233Z,26.17
2019-04-06T22:16:02.273Z,23.77
2019-04-06T22:18:30.997Z,22.23
2019-04-06T22:20:59.645Z,19.30
2019-04-06T22:23:40.417Z,18.63
2019-04-06T22:25:58.592Z,20.07
2019-04-06T22:28:27.205Z,20.67
2019-04-06T22:30:56.261Z,19.03
2019-04-06T22:33:25.122Z,18.67
2019-04-06T22:35:54.152Z,19.70
2019-04-06T22:38:22.854Z,18.93
2019-04-06T22:40:52.015Z,20.00
2019-04-06T22:43:20.797Z,22.33
2019-04-06T22:45:49.366Z,20.57
2019-04-06T22:48:18.507Z,21.87
2019-04-06T22:50:47.470Z,21.47
2019-04-06T22:53:16.578Z,22.13
2019-04-06T22:55:45.866Z,24.33
2019-04-06T22:58:14.598Z,22.47
2019-04-06T23:00:48.613Z,20.07
2019-04-06T23:03:27.645Z,19.10
2019-04-06T23:06:07.409Z,22.87
2019-04-06T23:08:36.451Z,24.43
2019-04-06T23:11:06.287Z,25.40
2019-04-06T23:13:35.182Z,21.33
2019-04-06T23:16:04.700Z,22.87
2019-04-06T23:18:33.433Z,26.27
2019-04-06T23:21:02.968Z,25.63
2019-04-06T23:23:31.767Z,24.53
2019-04-06T23:26:00.974Z,26.37
2019-04-06T23:28:29.749Z,22.20
2019-04-06T23:30:58.656Z,23.80
2019-04-06T23:33:28.019Z,22.37
2019-04-06T23:35:57.243Z,17.13
2019-04-06T23:38:26.032Z,21.77
2019-04-06T23:40:54.864Z,22.97
2019-04-06T23:43:23.509Z,20.10
2019-04-06T23:45:52.633Z,19.80
2019-04-06T23:48:21.943Z,22.03
2019-04-06T23:50:50.690Z,22.73
2019-04-06T23:53:19.374Z,22.07
2019-04-06T23:55:48.002Z,20.37
2019-04-06T23:58:16.881Z,23.93
